sensor_id;sensor_type;location;lat;lon;timestamp;P1;durP1;ratioP1;P2;durP2;ratioP2
15500;SDS011;7852;52.228;5.990;2023-03-12T00:19:14;2.5;;;2;;
15500;SDS011;7852;52.228;5.990;2023-03-12T00:20:14;5;;;2.4;;
15500;SDS011;7852;52.228;5.990;2023-03-12T00:21:14;3.2;;;2.2;;
15500;SDS011;7852;52.228;5.990;2023-03-12T00:22:14;2.6;;;2.1;;
15500;SDS011;7852;52.228;5.990;2023-03-12T00:23:15;2.6;;;2.3;;
15500;SDS011;7852;52.228;5.990;2023-03-12T00:24:14;4.1;;;2;;
15500;SDS011;7852;52.228;5.990;2023-03-12T00:25:14;3.2;;;2.2;;
15500;SDS011;7852;52.228;5.990;2023-03-12T00:26:14;7.4;;;2.6;;
15500;SDS011;7852;52.228;5.990;2023-03-12T00:27:14;2.6;;;2.2;;
15500;SDS011;7852;52.228;5.990;2023-03-12T00:28:14;2.1;;;1.9;;
15500;SDS011;7852;52.228;5.990;2023-03-12T00:29:14;1.7;;;1.6;;
15500;SDS011;7852;52.228;5.990;2023-03-12T00:30:14;2.8;;;2;;
15500;SDS011;7852;52.228;5.990;2023-03-12T00:31:15;2.9;;;2.3;;
15500;SDS011;7852;52.228;5.990;2023-03-12T00:32:14;3.1;;;2.3;;
15500;SDS011;7852;52.228;5.990;2023-03-12T00:33:14;2.9;;;1.8;;
15500;SDS011;7852;52.228;5.990;2023-03-12T00:34:15;1.7;;;1.6;;
15500;SDS011;7852;52.228;5.990;2023-03-12T00:35:14;3.1;;;2.3;;
15500;SDS011;7852;52.228;5.990;2023-03-12T00:36:14;3.3;;;2.3;;
15500;SDS011;7852;52.228;5.990;2023-03-12T00:37:14;3.7;;;2.3;;
15500;SDS011;7852;52.228;5.990;2023-03-12T00:38:14;2.3;;;2.1;;
15500;SDS011;7852;52.228;5.990;2023-03-12T00:39:14;2.9;;;2.2;;
15500;SDS011;7852;52.228;5.990;2023-03-12T00:40:14;1.6;;;1.5;;
15500;SDS011;7852;52.228;5.990;2023-03-12T00:41:14;4.2;;;2.2;;
15500;SDS011;7852;52.228;5.990;2023-03-12T00:42:14;2.8;;;1.9;;
15500;SDS011;7852;52.228;5.990;2023-03-12T00:43:14;2.2;;;2;;
15500;SDS011;7852;52.228;5.990;2023-03-12T00:44:14;1.5;;;1.4;;
15500;SDS011;7852;52.228;5.990;2023-03-12T00:45:14;14.7;;;2.4;;
15500;SDS011;7852;52.228;5.990;2023-03-12T00:46:14;2.5;;;1.8;;
15500;SDS011;7852;52.228;5.990;2023-03-12T00:47:14;3.5;;;1.9;;
15500;SDS011;7852;52.228;5.990;2023-03-12T00:48:14;3;;;2.1;;
15500;SDS011;7852;52.228;5.990;2023-03-12T00:49:14;1.5;;;1.4;;
15500;SDS011;7852;52.228;5.990;2023-03-12T00:50:14;2.5;;;1.4;;
15500;SDS011;7852;52.228;5.990;2023-03-12T00:51:14;2;;;1.5;;
15500;SDS011;7852;52.228;5.990;2023-03-12T00:52:47;1.6;;;1.5;;
15500;SDS011;7852;52.228;5.990;2023-03-12T00:53:42;1.8;;;1.7;;
15500;SDS011;7852;52.228;5.990;2023-03-12T00:54:14;2;;;1.9;;
15500;SDS011;7852;52.228;5.990;2023-03-12T00:55:14;2.2;;;2;;
15500;SDS011;7852;52.228;5.990;2023-03-12T00:56:14;3.7;;;2.9;;
15500;SDS011;7852;52.228;5.990;2023-03-12T00:57:14;3.9;;;3.5;;
15500;SDS011;7852;52.228;5.990;2023-03-12T00:58:14;3.1;;;2.8;;
15500;SDS011;7852;52.228;5.990;2023-03-12T00:59:14;11.7;;;3.6;;
15500;SDS011;7852;52.228;5.990;2023-03-12T01:00:14;2.8;;;2.4;;
15500;SDS011;7852;52.228;5.990;2023-03-12T01:01:14;3.3;;;2.8;;
15500;SDS011;7852;52.228;5.990;2023-03-12T01:02:14;3.3;;;2.8;;
15500;SDS011;7852;52.228;5.990;2023-03-12T01:03:14;2.4;;;2.2;;
15500;SDS011;7852;52.228;5.990;2023-03-12T01:04:14;3.2;;;2.8;;
15500;SDS011;7852;52.228;5.990;2023-03-12T01:05:14;5.2;;;3;;
15500;SDS011;7852;52.228;5.990;2023-03-12T01:06:14;7.2;;;3.8;;
15500;SDS011;7852;52.228;5.990;2023-03-12T01:07:14;4.5;;;2.9;;
15500;SDS011;7852;52.228;5.990;2023-03-12T01:08:14;4.4;;;3.4;;
15500;SDS011;7852;52.228;5.990;2023-03-12T01:09:14;3.4;;;3.1;;
15500;SDS011;7852;52.228;5.990;2023-03-12T01:10:14;5.2;;;3.4;;
15500;SDS011;7852;52.228;5.990;2023-03-12T01:11:14;4.5;;;3;;
15500;SDS011;7852;52.228;5.990;2023-03-12T01:12:14;3.2;;;2.9;;
15500;SDS011;7852;52.228;5.990;2023-03-12T01:13:14;3.7;;;3.1;;
15500;SDS011;7852;52.228;5.990;2023-03-12T01:14:14;2.6;;;2.1;;
15500;SDS011;7852;52.228;5.990;2023-03-12T01:15:14;2.5;;;2.3;;
15500;SDS011;7852;52.228;5.990;2023-03-12T01:16:14;3.3;;;2.8;;
15500;SDS011;7852;52.228;5.990;2023-03-12T01:17:14;4;;;3.3;;
15500;SDS011;7852;52.228;5.990;2023-03-12T01:18:14;3.9;;;2.7;;
15500;SDS011;7852;52.228;5.990;2023-03-12T01:19:14;2.7;;;2.4;;
15500;SDS011;7852;52.228;5.990;2023-03-12T01:20:14;3.3;;;3;;
15500;SDS011;7852;52.228;5.990;2023-03-12T01:21:14;5.9;;;2.8;;
15500;SDS011;7852;52.228;5.990;2023-03-12T01:22:14;3;;;2.7;;
15500;SDS011;7852;52.228;5.990;2023-03-12T01:23:14;3.1;;;2.8;;
15500;SDS011;7852;52.228;5.990;2023-03-12T01:24:14;5.7;;;2.8;;
15500;SDS011;7852;52.228;5.990;2023-03-12T01:25:14;4.4;;;3.1;;
15500;SDS011;7852;52.228;5.990;2023-03-12T01:26:14;3.3;;;3;;
15500;SDS011;7852;52.228;5.990;2023-03-12T01:27:14;4.8;;;3.1;;
15500;SDS011;7852;52.228;5.990;2023-03-12T01:28:14;3.2;;;2.9;;
15500;SDS011;7852;52.228;5.990;2023-03-12T01:29:14;3.5;;;2.6;;
15500;SDS011;7852;52.228;5.990;2023-03-12T01:30:14;6.1;;;3.3;;
15500;SDS011;7852;52.228;5.990;2023-03-12T01:31:14;4.8;;;3.1;;
15500;SDS011;7852;52.228;5.990;2023-03-12T01:32:14;3.4;;;3.1;;
15500;SDS011;7852;52.228;5.990;2023-03-12T01:33:14;3.2;;;2.6;;
15500;SDS011;7852;52.228;5.990;2023-03-12T01:34:14;3.2;;;2.1;;
15500;SDS011;7852;52.228;5.990;2023-03-12T01:35:14;4.2;;;3.5;;
15500;SDS011;7852;52.228;5.990;2023-03-12T01:36:14;3;;;2.7;;
15500;SDS011;7852;52.228;5.990;2023-03-12T01:37:15;2.6;;;2;;
15500;SDS011;7852;52.228;5.990;2023-03-12T01:38:15;2.2;;;2;;
15500;SDS011;7852;52.228;5.990;2023-03-12T01:39:15;3.7;;;2.9;;
15500;SDS011;7852;52.228;5.990;2023-03-12T01:40:15;2.7;;;2.2;;
15500;SDS011;7852;52.228;5.990;2023-03-12T01:41:15;3.3;;;2.3;;
15500;SDS011;7852;52.228;5.990;2023-03-12T01:42:15;6.8;;;2.9;;
15500;SDS011;7852;52.228;5.990;2023-03-12T01:43:23;2.8;;;2.4;;
15500;SDS011;7852;52.228;5.990;2023-03-12T01:44:15;2.7;;;2.1;;
15500;SDS011;7852;52.228;5.990;2023-03-12T01:46:31;4.5;;;2.8;;
15500;SDS011;7852;52.228;5.990;2023-03-12T01:47:15;5.1;;;2.9;;
15500;SDS011;7852;52.228;5.990;2023-03-12T01:48:16;3.7;;;2.6;;
15500;SDS011;7852;52.228;5.990;2023-03-12T01:49:16;4.4;;;3.3;;
15500;SDS011;7852;52.228;5.990;2023-03-12T01:50:15;2.5;;;2.3;;
15500;SDS011;7852;52.228;5.990;2023-03-12T01:51:15;4.8;;;3.2;;
15500;SDS011;7852;52.228;5.990;2023-03-12T01:52:15;8.8;;;3.4;;
15500;SDS011;7852;52.228;5.990;2023-03-12T01:53:15;4.1;;;3;;
15500;SDS011;7852;52.228;5.990;2023-03-12T01:54:15;2.8;;;2.4;;
15500;SDS011;7852;52.228;5.990;2023-03-12T01:55:15;5.4;;;3.6;;
15500;SDS011;7852;52.228;5.990;2023-03-12T01:56:15;5.2;;;3;;
15500;SDS011;7852;52.228;5.990;2023-03-12T01:57:16;3.4;;;3.1;;
15500;SDS011;7852;52.228;5.990;2023-03-12T01:58:15;4.8;;;3.1;;
15500;SDS011;7852;52.228;5.990;2023-03-12T01:59:16;4.8;;;3.4;;
15500;SDS011;7852;52.228;5.990;2023-03-12T02:00:16;5.9;;;3.6;;
15500;SDS011;7852;52.228;5.990;2023-03-12T02:01:15;3;;;2.7;;
15500;SDS011;7852;52.228;5.990;2023-03-12T02:02:15;3;;;2.7;;
15500;SDS011;7852;52.228;5.990;2023-03-12T02:03:15;4;;;3;;
15500;SDS011;7852;52.228;5.990;2023-03-12T02:04:15;3.9;;;3.5;;
15500;SDS011;7852;52.228;5.990;2023-03-12T02:05:16;3.5;;;2.8;;
15500;SDS011;7852;52.228;5.990;2023-03-12T02:06:15;4.5;;;3.5;;
15500;SDS011;7852;52.228;5.990;2023-03-12T02:07:15;3.6;;;2.9;;
15500;SDS011;7852;52.228;5.990;2023-03-12T02:08:15;4.7;;;3.6;;
15500;SDS011;7852;52.228;5.990;2023-03-12T02:09:15;3.5;;;2.9;;
15500;SDS011;7852;52.228;5.990;2023-03-12T02:10:15;3.7;;;3;;
15500;SDS011;7852;52.228;5.990;2023-03-12T02:11:15;2.9;;;2.5;;
15500;SDS011;7852;52.228;5.990;2023-03-12T02:12:15;3.9;;;3.2;;
15500;SDS011;7852;52.228;5.990;2023-03-12T02:13:15;6;;;3.1;;
15500;SDS011;7852;52.228;5.990;2023-03-12T02:14:15;5;;;3.3;;
15500;SDS011;7852;52.228;5.990;2023-03-12T02:15:15;3.6;;;3.1;;
15500;SDS011;7852;52.228;5.990;2023-03-12T02:16:15;4.6;;;3.5;;
15500;SDS011;7852;52.228;5.990;2023-03-12T02:17:15;6.1;;;3.3;;
15500;SDS011;7852;52.228;5.990;2023-03-12T02:18:15;5.7;;;3.2;;
15500;SDS011;7852;52.228;5.990;2023-03-12T02:19:16;6.1;;;3.8;;
15500;SDS011;7852;52.228;5.990;2023-03-12T02:20:16;7.8;;;3.5;;
15500;SDS011;7852;52.228;5.990;2023-03-12T02:21:19;4.6;;;3.3;;
15500;SDS011;7852;52.228;5.990;2023-03-12T02:22:15;3.6;;;2.7;;
15500;SDS011;7852;52.228;5.990;2023-03-12T02:23:16;5.1;;;2.9;;
15500;SDS011;7852;52.228;5.990;2023-03-12T02:24:16;5.8;;;3.6;;
15500;SDS011;7852;52.228;5.990;2023-03-12T02:25:18;3.9;;;2.7;;
15500;SDS011;7852;52.228;5.990;2023-03-12T02:26:15;3.8;;;3;;
15500;SDS011;7852;52.228;5.990;2023-03-12T02:27:15;7;;;3.3;;
15500;SDS011;7852;52.228;5.990;2023-03-12T02:28:16;5.5;;;2.9;;
15500;SDS011;7852;52.228;5.990;2023-03-12T02:29:15;4.7;;;3.4;;
15500;SDS011;7852;52.228;5.990;2023-03-12T02:30:15;4.3;;;2.9;;
15500;SDS011;7852;52.228;5.990;2023-03-12T02:31:16;3.2;;;2.9;;
15500;SDS011;7852;52.228;5.990;2023-03-12T02:32:17;3.5;;;2.9;;
15500;SDS011;7852;52.228;5.990;2023-03-12T02:33:15;4.8;;;3.3;;
15500;SDS011;7852;52.228;5.990;2023-03-12T02:34:15;3;;;2.7;;
15500;SDS011;7852;52.228;5.990;2023-03-12T02:35:15;3.3;;;3;;
15500;SDS011;7852;52.228;5.990;2023-03-12T02:36:15;5.6;;;3.5;;
15500;SDS011;7852;52.228;5.990;2023-03-12T02:37:15;4.3;;;3.3;;
15500;SDS011;7852;52.228;5.990;2023-03-12T02:38:28;3.5;;;2.6;;
15500;SDS011;7852;52.228;5.990;2023-03-12T02:39:15;4.7;;;3.7;;
15500;SDS011;7852;52.228;5.990;2023-03-12T02:40:17;4.8;;;3.2;;
15500;SDS011;7852;52.228;5.990;2023-03-12T02:41:16;2.9;;;2.5;;
15500;SDS011;7852;52.228;5.990;2023-03-12T02:42:15;4.8;;;3;;
15500;SDS011;7852;52.228;5.990;2023-03-12T02:43:16;4.3;;;3.7;;
15500;SDS011;7852;52.228;5.990;2023-03-12T02:44:17;2.6;;;2.4;;
15500;SDS011;7852;52.228;5.990;2023-03-12T02:45:16;3.5;;;3.2;;
15500;SDS011;7852;52.228;5.990;2023-03-12T02:46:16;4;;;3;;
15500;SDS011;7852;52.228;5.990;2023-03-12T02:47:16;2.8;;;2.5;;
15500;SDS011;7852;52.228;5.990;2023-03-12T02:48:16;2.7;;;2.5;;
15500;SDS011;7852;52.228;5.990;2023-03-12T02:49:16;2.2;;;1.9;;
15500;SDS011;7852;52.228;5.990;2023-03-12T02:50:16;3.8;;;2.3;;
15500;SDS011;7852;52.228;5.990;2023-03-12T02:51:16;2.9;;;2.7;;
15500;SDS011;7852;52.228;5.990;2023-03-12T02:52:16;2.6;;;2.4;;
15500;SDS011;7852;52.228;5.990;2023-03-12T02:53:16;5.4;;;2.7;;
15500;SDS011;7852;52.228;5.990;2023-03-12T02:54:17;3.5;;;3;;
15500;SDS011;7852;52.228;5.990;2023-03-12T02:55:16;4.7;;;3.3;;
15500;SDS011;7852;52.228;5.990;2023-03-12T02:56:16;5;;;4.5;;
15500;SDS011;7852;52.228;5.990;2023-03-12T02:57:16;7.7;;;5;;
15500;SDS011;7852;52.228;5.990;2023-03-12T02:58:16;7.3;;;4.6;;
15500;SDS011;7852;52.228;5.990;2023-03-12T02:59:16;5;;;3.4;;
15500;SDS011;7852;52.228;5.990;2023-03-12T03:00:17;7.1;;;5.6;;
15500;SDS011;7852;52.228;5.990;2023-03-12T03:01:17;4.7;;;3.8;;
15500;SDS011;7852;52.228;5.990;2023-03-12T03:02:17;5.3;;;4.5;;
15500;SDS011;7852;52.228;5.990;2023-03-12T03:03:17;4.4;;;4;;
15500;SDS011;7852;52.228;5.990;2023-03-12T03:04:17;5.4;;;4.4;;
15500;SDS011;7852;52.228;5.990;2023-03-12T03:05:17;8.1;;;5.7;;
15500;SDS011;7852;52.228;5.990;2023-03-12T03:06:17;13.1;;;6.7;;
15500;SDS011;7852;52.228;5.990;2023-03-12T03:07:17;10.4;;;8.1;;
15500;SDS011;7852;52.228;5.990;2023-03-12T03:08:17;9.1;;;7;;
15500;SDS011;7852;52.228;5.990;2023-03-12T03:09:17;8.4;;;4.7;;
15500;SDS011;7852;52.228;5.990;2023-03-12T03:10:17;11.2;;;5.4;;
15500;SDS011;7852;52.228;5.990;2023-03-12T03:11:17;7.3;;;4.9;;
15500;SDS011;7852;52.228;5.990;2023-03-12T03:12:17;4.8;;;3.9;;
15500;SDS011;7852;52.228;5.990;2023-03-12T03:13:17;7.6;;;4.7;;
15500;SDS011;7852;52.228;5.990;2023-03-12T03:14:17;5.6;;;3.4;;
15500;SDS011;7852;52.228;5.990;2023-03-12T03:15:17;4.5;;;3.6;;
15500;SDS011;7852;52.228;5.990;2023-03-12T03:16:17;5.2;;;3.8;;
15500;SDS011;7852;52.228;5.990;2023-03-12T03:17:17;3.4;;;2.9;;
15500;SDS011;7852;52.228;5.990;2023-03-12T03:18:19;2.8;;;2.3;;
15500;SDS011;7852;52.228;5.990;2023-03-12T03:19:19;3;;;2.7;;
15500;SDS011;7852;52.228;5.990;2023-03-12T03:20:19;6.1;;;4;;
15500;SDS011;7852;52.228;5.990;2023-03-12T03:21:19;6.9;;;3.8;;
15500;SDS011;7852;52.228;5.990;2023-03-12T03:22:19;6.5;;;2.5;;
15500;SDS011;7852;52.228;5.990;2023-03-12T03:23:19;2.2;;;2;;
15500;SDS011;7852;52.228;5.990;2023-03-12T03:24:19;6.9;;;2.7;;
15500;SDS011;7852;52.228;5.990;2023-03-12T03:25:19;4.2;;;2.9;;
15500;SDS011;7852;52.228;5.990;2023-03-12T03:26:19;3.6;;;3.3;;
15500;SDS011;7852;52.228;5.990;2023-03-12T03:27:19;3.3;;;2.9;;
15500;SDS011;7852;52.228;5.990;2023-03-12T03:28:19;3.9;;;2.6;;
15500;SDS011;7852;52.228;5.990;2023-03-12T03:29:19;4.6;;;2.8;;
15500;SDS011;7852;52.228;5.990;2023-03-12T03:30:19;7.1;;;2.7;;
15500;SDS011;7852;52.228;5.990;2023-03-12T03:31:19;8.2;;;3.4;;
15500;SDS011;7852;52.228;5.990;2023-03-12T03:32:19;4.7;;;2.5;;
15500;SDS011;7852;52.228;5.990;2023-03-12T03:33:19;3.1;;;2.3;;
15500;SDS011;7852;52.228;5.990;2023-03-12T03:34:19;8;;;3.1;;
15500;SDS011;7852;52.228;5.990;2023-03-12T03:35:19;8;;;3.1;;
15500;SDS011;7852;52.228;5.990;2023-03-12T03:36:19;5;;;3;;
15500;SDS011;7852;52.228;5.990;2023-03-12T03:37:19;4.1;;;3.4;;
15500;SDS011;7852;52.228;5.990;2023-03-12T03:38:19;3.1;;;2.8;;
15500;SDS011;7852;52.228;5.990;2023-03-12T03:39:19;9.3;;;3.3;;
15500;SDS011;7852;52.228;5.990;2023-03-12T03:40:19;4.5;;;3;;
15500;SDS011;7852;52.228;5.990;2023-03-12T03:41:19;3.8;;;3;;
15500;SDS011;7852;52.228;5.990;2023-03-12T03:42:19;3.3;;;2.7;;
15500;SDS011;7852;52.228;5.990;2023-03-12T03:43:19;3.5;;;2.9;;
15500;SDS011;7852;52.228;5.990;2023-03-12T03:44:19;5.8;;;2;;
15500;SDS011;7852;52.228;5.990;2023-03-12T03:45:19;2.7;;;2.5;;
15500;SDS011;7852;52.228;5.990;2023-03-12T03:46:19;4;;;2.9;;
15500;SDS011;7852;52.228;5.990;2023-03-12T03:47:19;5.1;;;3.8;;
15500;SDS011;7852;52.228;5.990;2023-03-12T03:48:19;3.4;;;2.5;;
15500;SDS011;7852;52.228;5.990;2023-03-12T03:49:19;3.2;;;2.7;;
15500;SDS011;7852;52.228;5.990;2023-03-12T03:50:19;2.9;;;2.6;;
15500;SDS011;7852;52.228;5.990;2023-03-12T03:51:19;1.5;;;1.4;;
15500;SDS011;7852;52.228;5.990;2023-03-12T03:52:19;5.1;;;2.6;;
15500;SDS011;7852;52.228;5.990;2023-03-12T03:53:19;5;;;2.9;;
15500;SDS011;7852;52.228;5.990;2023-03-12T03:54:19;8.6;;;3.6;;
15500;SDS011;7852;52.228;5.990;2023-03-12T03:55:19;3.3;;;2.9;;
15500;SDS011;7852;52.228;5.990;2023-03-12T03:56:19;3.8;;;3.3;;
15500;SDS011;7852;52.228;5.990;2023-03-12T03:57:19;4.1;;;2.8;;
15500;SDS011;7852;52.228;5.990;2023-03-12T03:58:19;2.5;;;2.3;;
15500;SDS011;7852;52.228;5.990;2023-03-12T03:59:19;2;;;1.8;;
15500;SDS011;7852;52.228;5.990;2023-03-12T04:00:19;5.4;;;3.2;;
15500;SDS011;7852;52.228;5.990;2023-03-12T04:01:38;4.4;;;2.7;;
15500;SDS011;7852;52.228;5.990;2023-03-12T04:02:19;2.9;;;2.3;;
15500;SDS011;7852;52.228;5.990;2023-03-12T04:03:19;2.7;;;2.1;;
15500;SDS011;7852;52.228;5.990;2023-03-12T04:04:19;5.1;;;3;;
15500;SDS011;7852;52.228;5.990;2023-03-12T04:05:19;4;;;3.4;;
15500;SDS011;7852;52.228;5.990;2023-03-12T04:06:19;3.2;;;2.9;;
15500;SDS011;7852;52.228;5.990;2023-03-12T04:07:19;5.1;;;3.3;;
15500;SDS011;7852;52.228;5.990;2023-03-12T04:08:19;4.8;;;3.2;;
15500;SDS011;7852;52.228;5.990;2023-03-12T04:09:19;2;;;1.9;;
15500;SDS011;7852;52.228;5.990;2023-03-12T04:10:19;3.1;;;2.8;;
15500;SDS011;7852;52.228;5.990;2023-03-12T04:11:19;2.5;;;2;;
15500;SDS011;7852;52.228;5.990;2023-03-12T04:12:19;5.6;;;3.9;;
15500;SDS011;7852;52.228;5.990;2023-03-12T04:13:19;4.6;;;2.5;;
15500;SDS011;7852;52.228;5.990;2023-03-12T04:14:19;3.2;;;2.1;;
15500;SDS011;7852;52.228;5.990;2023-03-12T04:15:19;1.7;;;1.6;;
15500;SDS011;7852;52.228;5.990;2023-03-12T04:16:19;2.8;;;2.5;;
15500;SDS011;7852;52.228;5.990;2023-03-12T04:17:19;2.2;;;2;;
15500;SDS011;7852;52.228;5.990;2023-03-12T04:18:19;5.3;;;3.2;;
15500;SDS011;7852;52.228;5.990;2023-03-12T04:19:19;2.6;;;2.1;;
15500;SDS011;7852;52.228;5.990;2023-03-12T04:20:19;2.5;;;2.3;;
15500;SDS011;7852;52.228;5.990;2023-03-12T04:21:19;2.5;;;2.1;;
15500;SDS011;7852;52.228;5.990;2023-03-12T04:22:19;5.1;;;3.4;;
15500;SDS011;7852;52.228;5.990;2023-03-12T04:23:19;2.8;;;2.2;;
15500;SDS011;7852;52.228;5.990;2023-03-12T04:24:19;3.8;;;2.7;;
15500;SDS011;7852;52.228;5.990;2023-03-12T04:25:19;3.5;;;2.6;;
15500;SDS011;7852;52.228;5.990;2023-03-12T04:26:19;1.7;;;1.5;;
15500;SDS011;7852;52.228;5.990;2023-03-12T04:27:19;2.2;;;2;;
15500;SDS011;7852;52.228;5.990;2023-03-12T04:28:19;2.2;;;1.4;;
15500;SDS011;7852;52.228;5.990;2023-03-12T04:29:19;2.8;;;2.2;;
15500;SDS011;7852;52.228;5.990;2023-03-12T04:30:19;3.2;;;2.3;;
15500;SDS011;7852;52.228;5.990;2023-03-12T04:31:19;5.8;;;2.6;;
15500;SDS011;7852;52.228;5.990;2023-03-12T04:32:19;5.9;;;2.9;;
15500;SDS011;7852;52.228;5.990;2023-03-12T04:33:19;6;;;2.4;;
15500;SDS011;7852;52.228;5.990;2023-03-12T04:34:19;14.6;;;3.3;;
15500;SDS011;7852;52.228;5.990;2023-03-12T04:35:19;3.2;;;2.1;;
15500;SDS011;7852;52.228;5.990;2023-03-12T04:36:19;4.2;;;2.5;;
15500;SDS011;7852;52.228;5.990;2023-03-12T04:37:19;4.3;;;2.3;;
15500;SDS011;7852;52.228;5.990;2023-03-12T04:38:19;4.8;;;2.4;;
15500;SDS011;7852;52.228;5.990;2023-03-12T04:39:19;1.3;;;1.2;;
15500;SDS011;7852;52.228;5.990;2023-03-12T04:40:19;2.3;;;1.5;;
15500;SDS011;7852;52.228;5.990;2023-03-12T04:41:19;1.6;;;1.5;;
15500;SDS011;7852;52.228;5.990;2023-03-12T04:42:19;1.6;;;1.5;;
15500;SDS011;7852;52.228;5.990;2023-03-12T04:43:19;2.6;;;1.4;;
15500;SDS011;7852;52.228;5.990;2023-03-12T04:44:19;5;;;2.2;;
15500;SDS011;7852;52.228;5.990;2023-03-12T04:45:19;2.4;;;1.9;;
15500;SDS011;7852;52.228;5.990;2023-03-12T04:46:19;2.2;;;1.7;;
15500;SDS011;7852;52.228;5.990;2023-03-12T04:47:19;2.6;;;1.7;;
15500;SDS011;7852;52.228;5.990;2023-03-12T04:48:19;2.8;;;2.1;;
15500;SDS011;7852;52.228;5.990;2023-03-12T04:49:19;8;;;2.5;;
15500;SDS011;7852;52.228;5.990;2023-03-12T04:50:19;2.3;;;2.1;;
15500;SDS011;7852;52.228;5.990;2023-03-12T04:51:20;4.4;;;2.5;;
15500;SDS011;7852;52.228;5.990;2023-03-12T04:52:20;2.2;;;1.4;;
15500;SDS011;7852;52.228;5.990;2023-03-12T04:53:20;1.7;;;1.4;;
15500;SDS011;7852;52.228;5.990;2023-03-12T04:54:20;3;;;2.3;;
15500;SDS011;7852;52.228;5.990;2023-03-12T04:55:20;3.8;;;2;;
15500;SDS011;7852;52.228;5.990;2023-03-12T04:56:20;3.7;;;1.9;;
15500;SDS011;7852;52.228;5.990;2023-03-12T04:57:20;3.2;;;2.4;;
15500;SDS011;7852;52.228;5.990;2023-03-12T04:58:21;4.4;;;2.3;;
15500;SDS011;7852;52.228;5.990;2023-03-12T04:59:48;2.4;;;1.9;;
15500;SDS011;7852;52.228;5.990;2023-03-12T05:00:20;2.1;;;1.7;;
15500;SDS011;7852;52.228;5.990;2023-03-12T05:01:21;2.1;;;1.8;;
15500;SDS011;7852;52.228;5.990;2023-03-12T05:02:20;2.2;;;2;;
15500;SDS011;7852;52.228;5.990;2023-03-12T05:03:20;2.6;;;2;;
15500;SDS011;7852;52.228;5.990;2023-03-12T05:04:20;1.9;;;1.7;;
15500;SDS011;7852;52.228;5.990;2023-03-12T05:05:20;3.6;;;2.1;;
15500;SDS011;7852;52.228;5.990;2023-03-12T05:06:20;2.6;;;2;;
15500;SDS011;7852;52.228;5.990;2023-03-12T05:07:20;2.2;;;1.7;;
15500;SDS011;7852;52.228;5.990;2023-03-12T05:08:20;2;;;1.5;;
15500;SDS011;7852;52.228;5.990;2023-03-12T05:09:20;2.5;;;1.7;;
15500;SDS011;7852;52.228;5.990;2023-03-12T05:10:20;2.4;;;1.8;;
15500;SDS011;7852;52.228;5.990;2023-03-12T05:11:20;5;;;2.4;;
15500;SDS011;7852;52.228;5.990;2023-03-12T05:12:20;1.9;;;1.7;;
15500;SDS011;7852;52.228;5.990;2023-03-12T05:13:21;2.1;;;1.9;;
15500;SDS011;7852;52.228;5.990;2023-03-12T05:14:20;3.3;;;1.9;;
15500;SDS011;7852;52.228;5.990;2023-03-12T05:15:20;2.4;;;2;;
15500;SDS011;7852;52.228;5.990;2023-03-12T05:16:20;2.7;;;2.3;;
15500;SDS011;7852;52.228;5.990;2023-03-12T05:17:20;7.9;;;3.1;;
15500;SDS011;7852;52.228;5.990;2023-03-12T05:18:20;3.8;;;1.5;;
15500;SDS011;7852;52.228;5.990;2023-03-12T05:19:20;6.3;;;2;;
15500;SDS011;7852;52.228;5.990;2023-03-12T05:20:20;1.7;;;1.5;;
15500;SDS011;7852;52.228;5.990;2023-03-12T05:21:20;1.7;;;1.5;;
15500;SDS011;7852;52.228;5.990;2023-03-12T05:22:20;3.1;;;1.8;;
15500;SDS011;7852;52.228;5.990;2023-03-12T05:23:20;2.2;;;2;;
15500;SDS011;7852;52.228;5.990;2023-03-12T05:24:20;1.5;;;1.4;;
15500;SDS011;7852;52.228;5.990;2023-03-12T05:25:20;2.1;;;1.9;;
15500;SDS011;7852;52.228;5.990;2023-03-12T05:26:21;2.1;;;1.8;;
15500;SDS011;7852;52.228;5.990;2023-03-12T05:27:20;3.5;;;1.8;;
15500;SDS011;7852;52.228;5.990;2023-03-12T05:28:20;2.7;;;1.7;;
15500;SDS011;7852;52.228;5.990;2023-03-12T05:29:20;3.1;;;1.5;;
15500;SDS011;7852;52.228;5.990;2023-03-12T05:30:20;1.6;;;1.5;;
15500;SDS011;7852;52.228;5.990;2023-03-12T05:31:20;3.8;;;2.4;;
15500;SDS011;7852;52.228;5.990;2023-03-12T05:32:20;1.1;;;1.1;;
15500;SDS011;7852;52.228;5.990;2023-03-12T05:33:20;1.6;;;1.5;;
15500;SDS011;7852;52.228;5.990;2023-03-12T05:34:20;3;;;2.1;;
15500;SDS011;7852;52.228;5.990;2023-03-12T05:35:21;2.2;;;1.9;;
15500;SDS011;7852;52.228;5.990;2023-03-12T05:36:20;1;;;0.9;;
15500;SDS011;7852;52.228;5.990;2023-03-12T05:37:20;2.1;;;1.7;;
15500;SDS011;7852;52.228;5.990;2023-03-12T05:38:20;3.3;;;2.1;;
15500;SDS011;7852;52.228;5.990;2023-03-12T05:39:20;5.7;;;2.7;;
15500;SDS011;7852;52.228;5.990;2023-03-12T05:40:20;2.4;;;1.6;;
15500;SDS011;7852;52.228;5.990;2023-03-12T05:41:21;4.5;;;1.3;;
15500;SDS011;7852;52.228;5.990;2023-03-12T05:42:20;2.2;;;1.7;;
15500;SDS011;7852;52.228;5.990;2023-03-12T05:43:20;7.8;;;2;;
15500;SDS011;7852;52.228;5.990;2023-03-12T05:44:20;3.2;;;1.9;;
15500;SDS011;7852;52.228;5.990;2023-03-12T05:45:20;2.7;;;1.8;;
15500;SDS011;7852;52.228;5.990;2023-03-12T05:46:20;3.2;;;2;;
15500;SDS011;7852;52.228;5.990;2023-03-12T05:47:20;4.8;;;1.6;;
15500;SDS011;7852;52.228;5.990;2023-03-12T05:48:20;3.3;;;1.1;;
15500;SDS011;7852;52.228;5.990;2023-03-12T05:49:20;1.6;;;1.4;;
15500;SDS011;7852;52.228;5.990;2023-03-12T05:50:20;5.3;;;2;;
15500;SDS011;7852;52.228;5.990;2023-03-12T05:51:20;1.9;;;1.7;;
15500;SDS011;7852;52.228;5.990;2023-03-12T05:52:20;1.8;;;1.6;;
15500;SDS011;7852;52.228;5.990;2023-03-12T05:53:20;1;;;0.8;;
15500;SDS011;7852;52.228;5.990;2023-03-12T05:54:21;5.9;;;1.8;;
15500;SDS011;7852;52.228;5.990;2023-03-12T05:55:21;2.1;;;1.4;;
15500;SDS011;7852;52.228;5.990;2023-03-12T05:56:21;1.6;;;1.1;;
15500;SDS011;7852;52.228;5.990;2023-03-12T05:57:21;1.2;;;0.9;;
15500;SDS011;7852;52.228;5.990;2023-03-12T05:58:21;1.2;;;1;;
15500;SDS011;7852;52.228;5.990;2023-03-12T05:59:21;1.4;;;1.3;;
15500;SDS011;7852;52.228;5.990;2023-03-12T06:00:21;1.8;;;1.5;;
15500;SDS011;7852;52.228;5.990;2023-03-12T06:01:22;3.7;;;1.9;;
15500;SDS011;7852;52.228;5.990;2023-03-12T06:02:21;4.2;;;1.3;;
15500;SDS011;7852;52.228;5.990;2023-03-12T06:03:21;1.4;;;1.2;;
15500;SDS011;7852;52.228;5.990;2023-03-12T06:04:21;3.6;;;1.8;;
15500;SDS011;7852;52.228;5.990;2023-03-12T06:05:21;1.8;;;1.1;;
15500;SDS011;7852;52.228;5.990;2023-03-12T06:06:21;1.6;;;1.5;;
15500;SDS011;7852;52.228;5.990;2023-03-12T06:07:21;3.4;;;1.4;;
15500;SDS011;7852;52.228;5.990;2023-03-12T06:08:21;1.7;;;1.6;;
15500;SDS011;7852;52.228;5.990;2023-03-12T06:09:21;2.8;;;1.2;;
15500;SDS011;7852;52.228;5.990;2023-03-12T06:10:21;0.9;;;0.9;;
15500;SDS011;7852;52.228;5.990;2023-03-12T06:11:21;3;;;1.2;;
15500;SDS011;7852;52.228;5.990;2023-03-12T06:12:21;1.7;;;1.3;;
15500;SDS011;7852;52.228;5.990;2023-03-12T06:13:21;1.1;;;0.8;;
15500;SDS011;7852;52.228;5.990;2023-03-12T06:14:21;2.4;;;1.4;;
15500;SDS011;7852;52.228;5.990;2023-03-12T06:15:21;2.1;;;1.5;;
15500;SDS011;7852;52.228;5.990;2023-03-12T06:16:22;2.4;;;0.9;;
15500;SDS011;7852;52.228;5.990;2023-03-12T06:17:21;1.2;;;1.1;;
15500;SDS011;7852;52.228;5.990;2023-03-12T06:18:21;1.1;;;1;;
15500;SDS011;7852;52.228;5.990;2023-03-12T06:19:21;0.5;;;0.5;;
15500;SDS011;7852;52.228;5.990;2023-03-12T06:20:21;2.4;;;0.9;;
15500;SDS011;7852;52.228;5.990;2023-03-12T06:21:21;4;;;1.9;;
15500;SDS011;7852;52.228;5.990;2023-03-12T06:22:21;1.4;;;1.3;;
15500;SDS011;7852;52.228;5.990;2023-03-12T06:23:21;1.7;;;1.2;;
15500;SDS011;7852;52.228;5.990;2023-03-12T06:24:21;2;;;1.1;;
15500;SDS011;7852;52.228;5.990;2023-03-12T06:25:21;1.2;;;1.1;;
15500;SDS011;7852;52.228;5.990;2023-03-12T06:26:21;4.4;;;1.7;;
15500;SDS011;7852;52.228;5.990;2023-03-12T06:27:21;1;;;0.8;;
15500;SDS011;7852;52.228;5.990;2023-03-12T06:28:21;1.4;;;1.3;;
15500;SDS011;7852;52.228;5.990;2023-03-12T06:29:21;1.2;;;1.1;;
15500;SDS011;7852;52.228;5.990;2023-03-12T06:30:21;1.4;;;1;;
15500;SDS011;7852;52.228;5.990;2023-03-12T06:31:21;1.3;;;1.2;;
15500;SDS011;7852;52.228;5.990;2023-03-12T06:32:21;4.4;;;2;;
15500;SDS011;7852;52.228;5.990;2023-03-12T06:33:21;1.2;;;0.9;;
15500;SDS011;7852;52.228;5.990;2023-03-12T06:34:22;2.7;;;1.8;;
15500;SDS011;7852;52.228;5.990;2023-03-12T06:35:21;2.3;;;1.3;;
15500;SDS011;7852;52.228;5.990;2023-03-12T06:36:21;0.9;;;0.8;;
15500;SDS011;7852;52.228;5.990;2023-03-12T06:37:21;2.1;;;1.5;;
15500;SDS011;7852;52.228;5.990;2023-03-12T06:38:21;2.3;;;1.4;;
15500;SDS011;7852;52.228;5.990;2023-03-12T06:39:21;4;;;2.1;;
15500;SDS011;7852;52.228;5.990;2023-03-12T06:40:21;5.6;;;2.1;;
15500;SDS011;7852;52.228;5.990;2023-03-12T06:41:21;1;;;0.9;;